sensor_id;sensor_type;location;lat;lon;timestamp;P1;durP1;ratioP1;P2;durP2;ratioP2
15502;SDS011;7853;52.186;5.948;2023-05-10T00:03:18;7.07;;;5.12;;
15502;SDS011;7853;52.186;5.948;2023-05-10T00:03:18;7.00;;;4.92;;
15502;SDS011;7853;52.186;5.948;2023-05-10T00:04:04;8.07;;;5.31;;
15502;SDS011;7853;52.186;5.948;2023-05-10T00:05:04;7.08;;;5.30;;
15502;SDS011;7853;52.186;5.948;2023-05-10T00:06:04;7.53;;;5.42;;
15502;SDS011;7853;52.186;5.948;2023-05-10T00:07:04;7.62;;;5.29;;
15502;SDS011;7853;52.186;5.948;2023-05-10T00:08:04;7.52;;;5.71;;
15502;SDS011;7853;52.186;5.948;2023-05-10T00:09:04;8.03;;;5.57;;
15502;SDS011;7853;52.186;5.948;2023-05-10T00:10:04;8.85;;;5.79;;
15502;SDS011;7853;52.186;5.948;2023-05-10T00:11:04;8.71;;;5.78;;
15502;SDS011;7853;52.186;5.948;2023-05-10T00:12:04;8.35;;;5.91;;
15502;SDS011;7853;52.186;5.948;2023-05-10T00:13:04;8.21;;;6.08;;
15502;SDS011;7853;52.186;5.948;2023-05-10T00:14:04;8.36;;;5.94;;
15502;SDS011;7853;52.186;5.948;2023-05-10T00:15:05;8.86;;;6.37;;
15502;SDS011;7853;52.186;5.948;2023-05-10T00:16:04;9.91;;;7.02;;
15502;SDS011;7853;52.186;5.948;2023-05-10T00:17:04;10.07;;;6.27;;
15502;SDS011;7853;52.186;5.948;2023-05-10T00:18:04;9.20;;;6.67;;
15502;SDS011;7853;52.186;5.948;2023-05-10T00:19:04;10.24;;;6.45;;
15502;SDS011;7853;52.186;5.948;2023-05-10T00:20:04;9.45;;;6.57;;
15502;SDS011;7853;52.186;5.948;2023-05-10T00:21:04;9.53;;;6.73;;
15502;SDS011;7853;52.186;5.948;2023-05-10T00:22:04;9.71;;;6.53;;
15502;SDS011;7853;52.186;5.948;2023-05-10T00:23:04;10.28;;;7.07;;
15502;SDS011;7853;52.186;5.948;2023-05-10T00:24:04;10.42;;;7.05;;
15502;SDS011;7853;52.186;5.948;2023-05-10T00:25:05;10.37;;;6.98;;
15502;SDS011;7853;52.186;5.948;2023-05-10T00:26:04;9.57;;;6.62;;
15502;SDS011;7853;52.186;5.948;2023-05-10T00:27:04;10.29;;;7.06;;
15502;SDS011;7853;52.186;5.948;2023-05-10T00:28:04;11.54;;;7.04;;
15502;SDS011;7853;52.186;5.948;2023-05-10T00:29:04;12.06;;;7.36;;
15502;SDS011;7853;52.186;5.948;2023-05-10T00:30:05;10.61;;;7.26;;
15502;SDS011;7853;52.186;5.948;2023-05-10T00:31:04;10.82;;;7.41;;
15502;SDS011;7853;52.186;5.948;2023-05-10T00:32:04;11.58;;;7.32;;
15502;SDS011;7853;52.186;5.948;2023-05-10T00:33:04;12.87;;;7.62;;
15502;SDS011;7853;52.186;5.948;2023-05-10T00:34:04;11.42;;;7.39;;
15502;SDS011;7853;52.186;5.948;2023-05-10T00:35:05;10.74;;;7.63;;
15502;SDS011;7853;52.186;5.948;2023-05-10T00:36:04;11.91;;;7.69;;
15502;SDS011;7853;52.186;5.948;2023-05-10T00:37:04;12.08;;;8.09;;
15502;SDS011;7853;52.186;5.948;2023-05-10T00:38:04;11.29;;;7.74;;
15502;SDS011;7853;52.186;5.948;2023-05-10T00:39:04;11.54;;;8.07;;
15502;SDS011;7853;52.186;5.948;2023-05-10T00:40:05;11.53;;;7.94;;
15502;SDS011;7853;52.186;5.948;2023-05-10T00:41:04;12.64;;;8.15;;
15502;SDS011;7853;52.186;5.948;2023-05-10T00:42:04;11.84;;;8.00;;
15502;SDS011;7853;52.186;5.948;2023-05-10T00:43:04;12.27;;;8.24;;
15502;SDS011;7853;52.186;5.948;2023-05-10T00:44:04;12.57;;;7.68;;
15502;SDS011;7853;52.186;5.948;2023-05-10T00:45:05;12.66;;;7.77;;
15502;SDS011;7853;52.186;5.948;2023-05-10T00:46:04;13.07;;;7.99;;
15502;SDS011;7853;52.186;5.948;2023-05-10T00:47:04;12.24;;;7.94;;
15502;SDS011;7853;52.186;5.948;2023-05-10T00:48:04;12.12;;;7.86;;
15502;SDS011;7853;52.186;5.948;2023-05-10T00:49:04;13.17;;;8.37;;
15502;SDS011;7853;52.186;5.948;2023-05-10T00:50:05;14.42;;;9.08;;
15502;SDS011;7853;52.186;5.948;2023-05-10T00:51:04;12.10;;;8.04;;
15502;SDS011;7853;52.186;5.948;2023-05-10T00:52:04;12.72;;;8.37;;
15502;SDS011;7853;52.186;5.948;2023-05-10T00:53:04;12.88;;;8.52;;
15502;SDS011;7853;52.186;5.948;2023-05-10T00:54:04;13.83;;;8.66;;
15502;SDS011;7853;52.186;5.948;2023-05-10T00:55:05;13.15;;;8.78;;
15502;SDS011;7853;52.186;5.948;2023-05-10T00:56:04;11.72;;;8.15;;
15502;SDS011;7853;52.186;5.948;2023-05-10T00:57:04;12.58;;;8.46;;
15502;SDS011;7853;52.186;5.948;2023-05-10T00:58:04;13.08;;;8.29;;
15502;SDS011;7853;52.186;5.948;2023-05-10T00:59:04;13.22;;;8.31;;
15502;SDS011;7853;52.186;5.948;2023-05-10T01:00:07;14.33;;;8.79;;
15502;SDS011;7853;52.186;5.948;2023-05-10T01:01:04;14.35;;;9.63;;
15502;SDS011;7853;52.186;5.948;2023-05-10T01:02:04;14.29;;;8.89;;
15502;SDS011;7853;52.186;5.948;2023-05-10T01:03:04;15.07;;;8.87;;
15502;SDS011;7853;52.186;5.948;2023-05-10T01:04:04;14.11;;;8.50;;
15502;SDS011;7853;52.186;5.948;2023-05-10T01:05:07;15.57;;;9.48;;
15502;SDS011;7853;52.186;5.948;2023-05-10T01:06:18;14.40;;;8.70;;
15502;SDS011;7853;52.186;5.948;2023-05-10T01:07:27;13.90;;;8.56;;
15502;SDS011;7853;52.186;5.948;2023-05-10T01:08:32;16.31;;;9.91;;
15502;SDS011;7853;52.186;5.948;2023-05-10T01:09:34;14.80;;;8.74;;
15502;SDS011;7853;52.186;5.948;2023-05-10T01:10:35;14.04;;;8.74;;
15502;SDS011;7853;52.186;5.948;2023-05-10T01:11:36;16.50;;;10.42;;
15502;SDS011;7853;52.186;5.948;2023-05-10T01:12:37;16.22;;;9.69;;
15502;SDS011;7853;52.186;5.948;2023-05-10T01:13:38;14.81;;;9.67;;
15502;SDS011;7853;52.186;5.948;2023-05-10T01:14:36;15.16;;;9.13;;
15502;SDS011;7853;52.186;5.948;2023-05-10T01:15:36;13.96;;;9.21;;
15502;SDS011;7853;52.186;5.948;2023-05-10T01:16:37;15.95;;;9.85;;
15502;SDS011;7853;52.186;5.948;2023-05-10T01:17:37;15.42;;;9.57;;
15502;SDS011;7853;52.186;5.948;2023-05-10T01:18:37;14.22;;;9.27;;
15502;SDS011;7853;52.186;5.948;2023-05-10T01:19:36;15.09;;;9.48;;
15502;SDS011;7853;52.186;5.948;2023-05-10T01:20:38;16.74;;;10.39;;
15502;SDS011;7853;52.186;5.948;2023-05-10T01:21:37;15.51;;;9.70;;
15502;SDS011;7853;52.186;5.948;2023-05-10T01:22:42;16.21;;;10.14;;
15502;SDS011;7853;52.186;5.948;2023-05-10T01:23:41;16.34;;;10.15;;
15502;SDS011;7853;52.186;5.948;2023-05-10T01:24:40;17.01;;;10.32;;
15502;SDS011;7853;52.186;5.948;2023-05-10T01:25:43;15.98;;;10.11;;
15502;SDS011;7853;52.186;5.948;2023-05-10T01:26:55;15.87;;;10.05;;
15502;SDS011;7853;52.186;5.948;2023-05-10T01:28:19;17.70;;;10.66;;
15502;SDS011;7853;52.186;5.948;2023-05-10T01:29:18;16.57;;;9.97;;
15502;SDS011;7853;52.186;5.948;2023-05-10T01:30:34;18.52;;;11.37;;
15502;SDS011;7853;52.186;5.948;2023-05-10T01:32:51;17.76;;;10.99;;
15502;SDS011;7853;52.186;5.948;2023-05-10T01:33:44;16.70;;;10.63;;
15502;SDS011;7853;52.186;5.948;2023-05-10T01:34:40;17.74;;;10.95;;
15502;SDS011;7853;52.186;5.948;2023-05-10T01:35:38;17.37;;;10.87;;
15502;SDS011;7853;52.186;5.948;2023-05-10T01:36:39;19.11;;;10.65;;
15502;SDS011;7853;52.186;5.948;2023-05-10T01:37:37;17.78;;;11.51;;
15502;SDS011;7853;52.186;5.948;2023-05-10T01:38:38;16.97;;;10.47;;
15502;SDS011;7853;52.186;5.948;2023-05-10T01:39:39;18.19;;;11.42;;
15502;SDS011;7853;52.186;5.948;2023-05-10T01:40:36;18.89;;;11.07;;
15502;SDS011;7853;52.186;5.948;2023-05-10T01:41:36;19.71;;;12.08;;
15502;SDS011;7853;52.186;5.948;2023-05-10T01:42:36;17.98;;;10.92;;
15502;SDS011;7853;52.186;5.948;2023-05-10T01:43:37;18.02;;;10.65;;
15502;SDS011;7853;52.186;5.948;2023-05-10T01:44:35;18.64;;;11.51;;
15502;SDS011;7853;52.186;5.948;2023-05-10T01:45:36;19.39;;;11.00;;
15502;SDS011;7853;52.186;5.948;2023-05-10T01:46:35;19.54;;;11.14;;
15502;SDS011;7853;52.186;5.948;2023-05-10T01:47:36;20.14;;;11.66;;
15502;SDS011;7853;52.186;5.948;2023-05-10T01:48:35;21.14;;;11.24;;
15502;SDS011;7853;52.186;5.948;2023-05-10T01:49:37;19.55;;;11.59;;
15502;SDS011;7853;52.186;5.948;2023-05-10T01:50:35;18.76;;;11.08;;
15502;SDS011;7853;52.186;5.948;2023-05-10T01:51:36;19.24;;;11.37;;
15502;SDS011;7853;52.186;5.948;2023-05-10T01:52:36;20.78;;;11.55;;
15502;SDS011;7853;52.186;5.948;2023-05-10T01:53:35;19.56;;;11.44;;
15502;SDS011;7853;52.186;5.948;2023-05-10T01:54:35;19.83;;;11.70;;
15502;SDS011;7853;52.186;5.948;2023-05-10T01:55:35;20.28;;;11.79;;
15502;SDS011;7853;52.186;5.948;2023-05-10T01:56:35;20.39;;;12.19;;
15502;SDS011;7853;52.186;5.948;2023-05-10T01:57:35;20.55;;;12.15;;
15502;SDS011;7853;52.186;5.948;2023-05-10T01:58:35;19.26;;;11.53;;
15502;SDS011;7853;52.186;5.948;2023-05-10T01:59:35;21.34;;;11.96;;
15502;SDS011;7853;52.186;5.948;2023-05-10T02:00:35;22.14;;;12.29;;
15502;SDS011;7853;52.186;5.948;2023-05-10T02:01:35;22.10;;;12.24;;
15502;SDS011;7853;52.186;5.948;2023-05-10T02:02:35;20.39;;;12.09;;
15502;SDS011;7853;52.186;5.948;2023-05-10T02:03:35;20.80;;;11.92;;
15502;SDS011;7853;52.186;5.948;2023-05-10T02:04:35;21.00;;;11.75;;
15502;SDS011;7853;52.186;5.948;2023-05-10T02:06:53;22.19;;;12.70;;
15502;SDS011;7853;52.186;5.948;2023-05-10T02:07:53;22.27;;;12.84;;
15502;SDS011;7853;52.186;5.948;2023-05-10T02:08:51;23.34;;;12.75;;
15502;SDS011;7853;52.186;5.948;2023-05-10T02:09:38;23.62;;;12.83;;
15502;SDS011;7853;52.186;5.948;2023-05-10T02:10:35;23.34;;;13.22;;
15502;SDS011;7853;52.186;5.948;2023-05-10T02:11:34;22.83;;;12.22;;
15502;SDS011;7853;52.186;5.948;2023-05-10T02:12:35;25.78;;;12.99;;
15502;SDS011;7853;52.186;5.948;2023-05-10T02:13:34;22.96;;;12.75;;
15502;SDS011;7853;52.186;5.948;2023-05-10T02:14:35;25.64;;;13.22;;
15502;SDS011;7853;52.186;5.948;2023-05-10T02:15:33;23.50;;;12.35;;
15502;SDS011;7853;52.186;5.948;2023-05-10T02:16:33;23.68;;;13.11;;
15502;SDS011;7853;52.186;5.948;2023-05-10T02:17:34;25.26;;;13.22;;
15502;SDS011;7853;52.186;5.948;2023-05-10T02:18:34;25.22;;;13.20;;
15502;SDS011;7853;52.186;5.948;2023-05-10T02:19:34;24.83;;;13.30;;
15502;SDS011;7853;52.186;5.948;2023-05-10T02:20:34;25.90;;;13.50;;
15502;SDS011;7853;52.186;5.948;2023-05-10T02:21:34;24.80;;;13.53;;
15502;SDS011;7853;52.186;5.948;2023-05-10T02:22:34;25.12;;;12.72;;
15502;SDS011;7853;52.186;5.948;2023-05-10T02:23:34;26.13;;;13.53;;
15502;SDS011;7853;52.186;5.948;2023-05-10T02:24:34;27.39;;;14.67;;
15502;SDS011;7853;52.186;5.948;2023-05-10T02:25:34;26.20;;;13.94;;
15502;SDS011;7853;52.186;5.948;2023-05-10T02:26:34;26.71;;;13.84;;
15502;SDS011;7853;52.186;5.948;2023-05-10T02:27:34;28.93;;;14.81;;
15502;SDS011;7853;52.186;5.948;2023-05-10T02:28:34;25.89;;;13.22;;
15502;SDS011;7853;52.186;5.948;2023-05-10T02:29:34;28.49;;;14.22;;
15502;SDS011;7853;52.186;5.948;2023-05-10T02:30:36;30.44;;;15.42;;
15502;SDS011;7853;52.186;5.948;2023-05-10T02:31:34;30.07;;;15.14;;
15502;SDS011;7853;52.186;5.948;2023-05-10T02:32:34;28.86;;;14.84;;
15502;SDS011;7853;52.186;5.948;2023-05-10T02:33:34;29.29;;;14.58;;
15502;SDS011;7853;52.186;5.948;2023-05-10T02:34:34;28.44;;;14.62;;
15502;SDS011;7853;52.186;5.948;2023-05-10T02:35:35;29.13;;;15.31;;
15502;SDS011;7853;52.186;5.948;2023-05-10T02:36:34;28.35;;;14.30;;
15502;SDS011;7853;52.186;5.948;2023-05-10T02:37:34;29.62;;;14.73;;
15502;SDS011;7853;52.186;5.948;2023-05-10T02:38:34;30.41;;;15.96;;
15502;SDS011;7853;52.186;5.948;2023-05-10T02:39:34;27.40;;;14.11;;
15502;SDS011;7853;52.186;5.948;2023-05-10T02:40:34;27.69;;;14.66;;
15502;SDS011;7853;52.186;5.948;2023-05-10T02:41:34;30.41;;;15.58;;
15502;SDS011;7853;52.186;5.948;2023-05-10T02:42:35;31.38;;;16.41;;
15502;SDS011;7853;52.186;5.948;2023-05-10T02:43:34;30.11;;;15.70;;
15502;SDS011;7853;52.186;5.948;2023-05-10T02:44:34;29.40;;;15.05;;
15502;SDS011;7853;52.186;5.948;2023-05-10T02:45:34;31.21;;;16.60;;
15502;SDS011;7853;52.186;5.948;2023-05-10T02:46:34;30.56;;;16.54;;
15502;SDS011;7853;52.186;5.948;2023-05-10T02:47:34;30.35;;;16.03;;
15502;SDS011;7853;52.186;5.948;2023-05-10T02:48:34;31.27;;;15.82;;
15502;SDS011;7853;52.186;5.948;2023-05-10T02:49:34;31.84;;;16.13;;
15502;SDS011;7853;52.186;5.948;2023-05-10T02:50:34;31.83;;;16.22;;
15502;SDS011;7853;52.186;5.948;2023-05-10T02:51:35;31.13;;;16.29;;
15502;SDS011;7853;52.186;5.948;2023-05-10T02:52:38;30.37;;;15.09;;
15502;SDS011;7853;52.186;5.948;2023-05-10T02:53:35;31.92;;;15.76;;
15502;SDS011;7853;52.186;5.948;2023-05-10T02:54:41;32.44;;;16.04;;
15502;SDS011;7853;52.186;5.948;2023-05-10T02:55:35;30.72;;;15.63;;
15502;SDS011;7853;52.186;5.948;2023-05-10T02:56:37;30.74;;;16.02;;
15502;SDS011;7853;52.186;5.948;2023-05-10T02:57:38;32.00;;;16.83;;
15502;SDS011;7853;52.186;5.948;2023-05-10T02:58:34;31.80;;;16.43;;
15502;SDS011;7853;52.186;5.948;2023-05-10T02:59:34;30.81;;;15.97;;
15502;SDS011;7853;52.186;5.948;2023-05-10T03:00:34;31.89;;;16.20;;
15502;SDS011;7853;52.186;5.948;2023-05-10T03:01:34;31.08;;;15.79;;
15502;SDS011;7853;52.186;5.948;2023-05-10T03:02:34;31.76;;;16.11;;
15502;SDS011;7853;52.186;5.948;2023-05-10T03:03:35;30.64;;;15.83;;
15502;SDS011;7853;52.186;5.948;2023-05-10T03:04:35;31.15;;;16.43;;
15502;SDS011;7853;52.186;5.948;2023-05-10T03:05:34;29.95;;;15.78;;
15502;SDS011;7853;52.186;5.948;2023-05-10T03:06:35;33.24;;;17.83;;
15502;SDS011;7853;52.186;5.948;2023-05-10T03:07:34;32.01;;;16.79;;
15502;SDS011;7853;52.186;5.948;2023-05-10T03:08:34;30.91;;;15.77;;
15502;SDS011;7853;52.186;5.948;2023-05-10T03:09:37;31.24;;;15.70;;
15502;SDS011;7853;52.186;5.948;2023-05-10T03:10:44;30.14;;;15.72;;
15502;SDS011;7853;52.186;5.948;2023-05-10T03:11:50;31.99;;;16.27;;
15502;SDS011;7853;52.186;5.948;2023-05-10T03:12:47;29.57;;;16.00;;
15502;SDS011;7853;52.186;5.948;2023-05-10T03:13:39;32.16;;;16.67;;
15502;SDS011;7853;52.186;5.948;2023-05-10T03:14:39;30.79;;;15.63;;
15502;SDS011;7853;52.186;5.948;2023-05-10T03:15:37;29.15;;;15.18;;
15502;SDS011;7853;52.186;5.948;2023-05-10T03:16:36;32.07;;;17.41;;
15502;SDS011;7853;52.186;5.948;2023-05-10T03:17:36;32.53;;;16.72;;
15502;SDS011;7853;52.186;5.948;2023-05-10T03:18:36;31.43;;;15.47;;
15502;SDS011;7853;52.186;5.948;2023-05-10T03:19:36;28.49;;;15.28;;
15502;SDS011;7853;52.186;5.948;2023-05-10T03:20:35;30.20;;;16.09;;
15502;SDS011;7853;52.186;5.948;2023-05-10T03:21:34;30.70;;;16.20;;
15502;SDS011;7853;52.186;5.948;2023-05-10T03:22:34;31.54;;;16.20;;
15502;SDS011;7853;52.186;5.948;2023-05-10T03:23:34;31.27;;;15.93;;
15502;SDS011;7853;52.186;5.948;2023-05-10T03:24:34;32.04;;;16.53;;
15502;SDS011;7853;52.186;5.948;2023-05-10T03:25:34;29.66;;;15.47;;
15502;SDS011;7853;52.186;5.948;2023-05-10T03:26:34;29.56;;;15.35;;
15502;SDS011;7853;52.186;5.948;2023-05-10T03:27:34;31.29;;;15.47;;
15502;SDS011;7853;52.186;5.948;2023-05-10T03:28:34;33.57;;;17.46;;
15502;SDS011;7853;52.186;5.948;2023-05-10T03:29:34;33.04;;;17.04;;
15502;SDS011;7853;52.186;5.948;2023-05-10T03:30:34;30.23;;;15.81;;
15502;SDS011;7853;52.186;5.948;2023-05-10T03:31:34;33.37;;;17.69;;
15502;SDS011;7853;52.186;5.948;2023-05-10T03:32:34;29.64;;;16.04;;
15502;SDS011;7853;52.186;5.948;2023-05-10T03:33:34;30.69;;;15.89;;
15502;SDS011;7853;52.186;5.948;2023-05-10T03:34:34;30.71;;;15.57;;
15502;SDS011;7853;52.186;5.948;2023-05-10T03:35:34;31.03;;;17.11;;
15502;SDS011;7853;52.186;5.948;2023-05-10T03:36:35;34.19;;;18.67;;
15502;SDS011;7853;52.186;5.948;2023-05-10T03:37:33;32.69;;;17.38;;
15502;SDS011;7853;52.186;5.948;2023-05-10T03:38:34;28.65;;;15.13;;
15502;SDS011;7853;52.186;5.948;2023-05-10T03:39:34;29.37;;;15.81;;
15502;SDS011;7853;52.186;5.948;2023-05-10T03:40:34;30.07;;;15.71;;
15502;SDS011;7853;52.186;5.948;2023-05-10T03:41:34;30.03;;;15.81;;
15502;SDS011;7853;52.186;5.948;2023-05-10T03:42:34;31.48;;;17.29;;
15502;SDS011;7853;52.186;5.948;2023-05-10T03:43:34;30.70;;;16.60;;
15502;SDS011;7853;52.186;5.948;2023-05-10T03:44:34;28.93;;;15.10;;
15502;SDS011;7853;52.186;5.948;2023-05-10T03:45:34;33.48;;;17.21;;
15502;SDS011;7853;52.186;5.948;2023-05-10T03:46:34;29.28;;;15.33;;
15502;SDS011;7853;52.186;5.948;2023-05-10T03:47:34;30.25;;;15.88;;
15502;SDS011;7853;52.186;5.948;2023-05-10T03:48:34;27.67;;;14.90;;
15502;SDS011;7853;52.186;5.948;2023-05-10T03:49:34;31.60;;;16.34;;
15502;SDS011;7853;52.186;5.948;2023-05-10T03:50:34;29.36;;;16.03;;
15502;SDS011;7853;52.186;5.948;2023-05-10T03:51:34;29.57;;;16.10;;
15502;SDS011;7853;52.186;5.948;2023-05-10T03:52:34;29.19;;;15.96;;
15502;SDS011;7853;52.186;5.948;2023-05-10T03:53:34;27.88;;;14.87;;
15502;SDS011;7853;52.186;5.948;2023-05-10T03:54:34;30.16;;;15.66;;
15502;SDS011;7853;52.186;5.948;2023-05-10T03:55:34;27.14;;;14.77;;
15502;SDS011;7853;52.186;5.948;2023-05-10T03:56:34;29.88;;;15.19;;
15502;SDS011;7853;52.186;5.948;2023-05-10T03:57:34;27.09;;;14.93;;
15502;SDS011;7853;52.186;5.948;2023-05-10T03:58:34;28.25;;;15.20;;
15502;SDS011;7853;52.186;5.948;2023-05-10T03:59:34;27.74;;;15.13;;
15502;SDS011;7853;52.186;5.948;2023-05-10T04:00:34;27.69;;;14.89;;
15502;SDS011;7853;52.186;5.948;2023-05-10T04:01:34;28.94;;;15.08;;
15502;SDS011;7853;52.186;5.948;2023-05-10T04:02:34;27.56;;;15.40;;
15502;SDS011;7853;52.186;5.948;2023-05-10T04:03:34;27.03;;;14.68;;
15502;SDS011;7853;52.186;5.948;2023-05-10T04:04:34;31.68;;;15.98;;
15502;SDS011;7853;52.186;5.948;2023-05-10T04:05:34;29.36;;;15.56;;
15502;SDS011;7853;52.186;5.948;2023-05-10T04:06:34;28.32;;;14.50;;
15502;SDS011;7853;52.186;5.948;2023-05-10T04:07:34;27.92;;;15.25;;
15502;SDS011;7853;52.186;5.948;2023-05-10T04:08:34;27.99;;;14.55;;
15502;SDS011;7853;52.186;5.948;2023-05-10T04:09:34;27.21;;;14.31;;
15502;SDS011;7853;52.186;5.948;2023-05-10T04:10:34;28.57;;;14.73;;
15502;SDS011;7853;52.186;5.948;2023-05-10T04:11:34;29.09;;;15.09;;
15502;SDS011;7853;52.186;5.948;2023-05-10T04:12:34;29.12;;;14.53;;
15502;SDS011;7853;52.186;5.948;2023-05-10T04:13:34;28.74;;;15.03;;
15502;SDS011;7853;52.186;5.948;2023-05-10T04:14:34;23.85;;;12.36;;
15502;SDS011;7853;52.186;5.948;2023-05-10T04:15:34;26.95;;;14.49;;
15502;SDS011;7853;52.186;5.948;2023-05-10T04:16:34;27.63;;;14.94;;
15502;SDS011;7853;52.186;5.948;2023-05-10T04:17:34;28.64;;;15.82;;
15502;SDS011;7853;52.186;5.948;2023-05-10T04:18:34;30.76;;;15.93;;
15502;SDS011;7853;52.186;5.948;2023-05-10T04:19:34;26.37;;;14.60;;
15502;SDS011;7853;52.186;5.948;2023-05-10T04:20:34;30.68;;;15.66;;
15502;SDS011;7853;52.186;5.948;2023-05-10T04:21:34;26.30;;;12.62;;
15502;SDS011;7853;52.186;5.948;2023-05-10T04:22:34;26.47;;;13.05;;
15502;SDS011;7853;52.186;5.948;2023-05-10T04:23:35;27.17;;;14.05;;
15502;SDS011;7853;52.186;5.948;2023-05-10T04:24:34;28.93;;;14.36;;
15502;SDS011;7853;52.186;5.948;2023-05-10T04:25:35;30.28;;;15.15;;
15502;SDS011;7853;52.186;5.948;2023-05-10T04:26:34;27.95;;;13.41;;
15502;SDS011;7853;52.186;5.948;2023-05-10T04:27:35;28.60;;;14.70;;
15502;SDS011;7853;52.186;5.948;2023-05-10T04:28:35;27.79;;;14.29;;
15502;SDS011;7853;52.186;5.948;2023-05-10T04:29:35;30.81;;;16.27;;
15502;SDS011;7853;52.186;5.948;2023-05-10T04:30:34;29.35;;;15.23;;
15502;SDS011;7853;52.186;5.948;2023-05-10T04:31:34;29.93;;;15.41;;
15502;SDS011;7853;52.186;5.948;2023-05-10T04:32:34;28.84;;;14.20;;
15502;SDS011;7853;52.186;5.948;2023-05-10T04:33:35;32.03;;;15.47;;
15502;SDS011;7853;52.186;5.948;2023-05-10T04:34:34;27.98;;;13.51;;
15502;SDS011;7853;52.186;5.948;2023-05-10T04:35:34;29.34;;;14.69;;
15502;SDS011;7853;52.186;5.948;2023-05-10T04:36:34;30.20;;;15.79;;
15502;SDS011;7853;52.186;5.948;2023-05-10T04:37:34;28.37;;;13.79;;
15502;SDS011;7853;52.186;5.948;2023-05-10T04:38:34;25.74;;;12.43;;
15502;SDS011;7853;52.186;5.948;2023-05-10T04:39:34;31.07;;;14.63;;
15502;SDS011;7853;52.186;5.948;2023-05-10T04:40:34;31.17;;;14.88;;
15502;SDS011;7853;52.186;5.948;2023-05-10T04:41:35;28.04;;;13.59;;
15502;SDS011;7853;52.186;5.948;2023-05-10T04:42:34;29.35;;;13.54;;
15502;SDS011;7853;52.186;5.948;2023-05-10T04:43:34;29.28;;;13.99;;
15502;SDS011;7853;52.186;5.948;2023-05-10T04:44:34;29.17;;;13.77;;
15502;SDS011;7853;52.186;5.948;2023-05-10T04:45:35;29.99;;;14.62;;
15502;SDS011;7853;52.186;5.948;2023-05-10T04:46:34;27.28;;;12.71;;
15502;SDS011;7853;52.186;5.948;2023-05-10T04:47:34;29.32;;;13.72;;
15502;SDS011;7853;52.186;5.948;2023-05-10T04:48:35;26.03;;;13.53;;
15502;SDS011;7853;52.186;5.948;2023-05-10T04:49:34;26.20;;;11.62;;
15502;SDS011;7853;52.186;5.948;2023-05-10T04:50:34;29.82;;;14.19;;
15502;SDS011;7853;52.186;5.948;2023-05-10T04:51:34;26.91;;;13.42;;
15502;SDS011;7853;52.186;5.948;2023-05-10T04:52:35;25.46;;;12.56;;
15502;SDS011;7853;52.186;5.948;2023-05-10T04:53:34;27.36;;;13.61;;
15502;SDS011;7853;52.186;5.948;2023-05-10T04:54:34;30.21;;;14.21;;
15502;SDS011;7853;52.186;5.948;2023-05-10T04:55:35;30.04;;;14.04;;
15502;SDS011;7853;52.186;5.948;2023-05-10T04:56:34;31.76;;;14.14;;
15502;SDS011;7853;52.186;5.948;2023-05-10T04:57:35;32.58;;;14.58;;
15502;SDS011;7853;52.186;5.948;2023-05-10T04:58:34;29.82;;;14.22;;
15502;SDS011;7853;52.186;5.948;2023-05-10T04:59:35;32.03;;;14.85;;
15502;SDS011;7853;52.186;5.948;2023-05-10T05:00:35;31.96;;;15.20;;
15502;SDS011;7853;52.186;5.948;2023-05-10T05:01:34;32.49;;;14.94;;
15502;SDS011;7853;52.186;5.948;2023-05-10T05:02:34;31.77;;;13.89;;
15502;SDS011;7853;52.186;5.948;2023-05-10T05:03:34;31.09;;;14.16;;
15502;SDS011;7853;52.186;5.948;2023-05-10T05:04:35;33.73;;;14.95;;
15502;SDS011;7853;52.186;5.948;2023-05-10T05:05:35;37.36;;;17.37;;
15502;SDS011;7853;52.186;5.948;2023-05-10T05:06:34;38.56;;;18.51;;
15502;SDS011;7853;52.186;5.948;2023-05-10T05:07:34;39.58;;;17.32;;
15502;SDS011;7853;52.186;5.948;2023-05-10T05:08:34;35.31;;;16.34;;
15502;SDS011;7853;52.186;5.948;2023-05-10T05:09:35;33.54;;;14.59;;
15502;SDS011;7853;52.186;5.948;2023-05-10T05:10:35;33.23;;;15.87;;
15502;SDS011;7853;52.186;5.948;2023-05-10T05:11:34;34.84;;;16.23;;
15502;SDS011;7853;52.186;5.948;2023-05-10T05:12:35;38.86;;;17.23;;
15502;SDS011;7853;52.186;5.948;2023-05-10T05:13:35;33.38;;;14.69;;
15502;SDS011;7853;52.186;5.948;2023-05-10T05:14:34;34.01;;;14.65;;
15502;SDS011;7853;52.186;5.948;2023-05-10T05:15:35;38.24;;;15.82;;
15502;SDS011;7853;52.186;5.948;2023-05-10T05:16:34;38.69;;;16.33;;
15502;SDS011;7853;52.186;5.948;2023-05-10T05:17:35;41.19;;;17.82;;
15502;SDS011;7853;52.186;5.948;2023-05-10T05:18:35;37.97;;;15.98;;
15502;SDS011;7853;52.186;5.948;2023-05-10T05:19:34;37.35;;;15.95;;
15502;SDS011;7853;52.186;5.948;2023-05-10T05:20:34;36.10;;;15.65;;
15502;SDS011;7853;52.186;5.948;2023-05-10T05:21:35;39.25;;;16.94;;
15502;SDS011;7853;52.186;5.948;2023-05-10T05:22:35;36.46;;;15.16;;
15502;SDS011;7853;52.186;5.948;2023-05-10T05:23:34;38.11;;;17.09;;
15502;SDS011;7853;52.186;5.948;2023-05-10T05:24:35;36.15;;;15.22;;
15502;SDS011;7853;52.186;5.948;2023-05-10T05:25:35;38.25;;;16.53;;
15502;SDS011;7853;52.186;5.948;2023-05-10T05:26:34;38.68;;;16.69;;
15502;SDS011;7853;52.186;5.948;2023-05-10T05:27:35;36.25;;;16.37;;
15502;SDS011;7853;52.186;5.948;2023-05-10T05:28:35;37.06;;;16.11;;
15502;SDS011;7853;52.186;5.948;2023-05-10T05:29:34;31.65;;;13.85;;
15502;SDS011;7853;52.186;5.948;2023-05-10T05:30:35;31.24;;;13.78;;
15502;SDS011;7853;52.186;5.948;2023-05-10T05:31:34;36.83;;;14.96;;
15502;SDS011;7853;52.186;5.948;2023-05-10T05:32:34;39.61;;;16.24;;
15502;SDS011;7853;52.186;5.948;2023-05-10T05:33:35;40.69;;;16.91;;
15502;SDS011;7853;52.186;5.948;2023-05-10T05:34:35;37.69;;;16.36;;
15502;SDS011;7853;52.186;5.948;2023-05-10T05:35:35;36.54;;;15.45;;
15502;SDS011;7853;52.186;5.948;2023-05-10T05:36:35;36.46;;;15.37;;
15502;SDS011;7853;52.186;5.948;2023-05-10T05:37:35;39.69;;;16.31;;
15502;SDS011;7853;52.186;5.948;2023-05-10T05:38:35;38.79;;;15.91;;
15502;SDS011;7853;52.186;5.948;2023-05-10T05:39:35;39.55;;;15.20;;
15502;SDS011;7853;52.186;5.948;2023-05-10T05:40:35;36.35;;;15.17;;
15502;SDS011;7853;52.186;5.948;2023-05-10T05:41:35;33.84;;;14.47;;
15502;SDS011;7853;52.186;5.948;2023-05-10T05:42:34;35.23;;;14.82;;
15502;SDS011;7853;52.186;5.948;2023-05-10T05:43:34;38.99;;;16.95;;
15502;SDS011;7853;52.186;5.948;2023-05-10T05:44:35;36.93;;;15.86;;
15502;SDS011;7853;52.186;5.948;2023-05-10T05:45:35;40.14;;;17.32;;
15502;SDS011;7853;52.186;5.948;2023-05-10T05:46:37;38.35;;;16.07;;
15502;SDS011;7853;52.186;5.948;2023-05-10T05:47:35;37.63;;;15.08;;
15502;SDS011;7853;52.186;5.948;2023-05-10T05:48:34;42.43;;;18.04;;
15502;SDS011;7853;52.186;5.948;2023-05-10T05:49:34;38.88;;;15.50;;
15502;SDS011;7853;52.186;5.948;2023-05-10T05:50:34;37.11;;;15.27;;
15502;SDS011;7853;52.186;5.948;2023-05-10T05:51:35;40.70;;;16.39;;
15502;SDS011;7853;52.186;5.948;2023-05-10T05:52:35;41.80;;;16.74;;
15502;SDS011;7853;52.186;5.948;2023-05-10T05:53:35;38.60;;;16.17;;
15502;SDS011;7853;52.186;5.948;2023-05-10T05:54:35;33.74;;;13.36;;
15502;SDS011;7853;52.186;5.948;2023-05-10T05:55:34;36.07;;;14.54;;
15502;SDS011;7853;52.186;5.948;2023-05-10T05:56:35;39.72;;;15.83;;
15502;SDS011;7853;52.186;5.948;2023-05-10T05:57:34;40.83;;;16.32;;
15502;SDS011;7853;52.186;5.948;2023-05-10T05:58:35;38.49;;;15.39;;
15502;SDS011;7853;52.186;5.948;2023-05-10T05:59:35;37.28;;;15.44;;
15502;SDS011;7853;52.186;5.948;2023-05-10T06:00:35;44.33;;;16.77;;
15502;SDS011;7853;52.186;5.948;2023-05-10T06:01:35;40.45;;;15.89;;
15502;SDS011;7853;52.186;5.948;2023-05-10T06:02:35;41.97;;;16.73;;